createdAt,value
2022-10-12T00:00:59.349Z,76669.25
2022-10-12T00:03:26.039Z,76671.19
2022-10-12T00:06:07.690Z,76680.81
2022-10-12T00:08:36.919Z,76667.34
2022-10-12T00:11:04.766Z,76671.19
2022-10-12T00:13:31.758Z,76663.47
2022-10-12T00:16:05.755Z,76669.25
2022-10-12T00:18:33.689Z,76669.25
2022-10-12T00:21:07.821Z,76675.03
2022-10-12T00:23:35.950Z,76678.91
2022-10-12T00:26:10.645Z,76678.91
2022-10-12T00:28:37.979Z,76675.03
2022-10-12T00:31:14.014Z,76678.91
2022-10-12T00:33:41.263Z,76680.81
2022-10-12T00:36:15.842Z,76678.91
2022-10-12T00:38:42.953Z,76671.19
2022-10-12T00:41:09.949Z,76669.25
2022-10-12T00:43:39.251Z,76673.13
2022-10-12T00:46:28.711Z,76678.91
2022-10-12T00:49:17.972Z,76669.25
2022-10-12T00:51:51.236Z,76665.41
2022-10-12T00:54:26.676Z,76671.19
2022-10-12T00:56:56.705Z,76682.75
2022-10-12T00:59:32.094Z,76680.81
2022-10-12T01:01:58.879Z,76678.91
2022-10-12T01:04:26.393Z,76667.34
2022-10-12T01:06:53.249Z,76669.25
2022-10-12T01:09:21.388Z,76678.91
2022-10-12T01:11:48.473Z,76694.31
2022-10-12T01:14:16.519Z,76700.09
2022-10-12T01:17:07.394Z,76700.09
2022-10-12T01:19:42.947Z,76702.03
2022-10-12T01:22:15.802Z,76702.03
2022-10-12T01:24:54.353Z,76709.72
2022-10-12T01:27:23.921Z,76719.38
2022-10-12T01:29:56.738Z,76721.28
2022-10-12T01:32:33.817Z,76729.00
2022-10-12T01:35:23.484Z,76732.84
2022-10-12T01:38:10.536Z,76740.56
2022-10-12T01:40:42.440Z,76740.56
2022-10-12T01:43:09.190Z,76746.34
2022-10-12T01:45:35.966Z,76755.97
2022-10-12T01:48:04.333Z,76765.63
2022-10-12T01:50:49.785Z,76757.91
2022-10-12T01:53:54.388Z,76755.97
2022-10-12T01:56:33.174Z,76759.84
2022-10-12T01:59:40.530Z,76757.91
2022-10-12T02:02:42.773Z,76759.84
2022-10-12T02:05:28.271Z,76763.69
2022-10-12T02:08:03.527Z,76767.53
2022-10-12T02:10:48.675Z,76775.25
2022-10-12T02:13:19.542Z,76779.09
2022-10-12T02:15:48.629Z,76779.09
2022-10-12T02:18:19.446Z,76782.97
2022-10-12T02:20:48.996Z,76786.81
2022-10-12T02:23:17.199Z,76786.81
2022-10-12T02:25:46.019Z,76798.38
2022-10-12T02:28:17.660Z,76802.22
2022-10-12T02:30:57.312Z,76815.72
2022-10-12T02:33:38.638Z,76817.66
2022-10-12T02:36:19.614Z,76825.34
2022-10-12T02:39:19.190Z,76838.84
2022-10-12T02:41:51.068Z,76852.34
2022-10-12T02:44:24.942Z,76861.97
2022-10-12T02:46:54.551Z,76863.91
2022-10-12T02:49:25.283Z,76865.84
2022-10-12T02:51:52.789Z,76867.75
2022-10-12T02:54:20.445Z,76875.47
2022-10-12T02:56:47.816Z,76879.31
2022-10-12T02:59:15.700Z,76877.41
2022-10-12T03:01:43.869Z,76885.09
2022-10-12T03:04:10.863Z,76890.88
2022-10-12T03:06:37.898Z,76900.53
2022-10-12T03:09:05.398Z,76904.38
2022-10-12T03:11:32.264Z,76910.16
2022-10-12T03:13:59.218Z,76908.22
2022-10-12T03:16:26.085Z,76908.22
2022-10-12T03:18:52.812Z,76900.53
2022-10-12T03:21:19.458Z,76894.75
2022-10-12T03:23:46.135Z,76888.97
2022-10-12T03:26:12.711Z,76887.03
2022-10-12T03:28:39.375Z,76890.88
2022-10-12T03:31:06.285Z,76887.03
2022-10-12T03:33:32.972Z,76890.88
2022-10-12T03:35:59.843Z,76890.88
2022-10-12T03:38:26.504Z,76896.66
2022-10-12T03:40:53.371Z,76890.88
2022-10-12T03:43:20.002Z,76883.19
2022-10-12T03:45:46.785Z,76879.31
2022-10-12T03:48:13.470Z,76885.09
2022-10-12T03:50:40.457Z,76902.44
2022-10-12T03:53:07.108Z,76921.72
2022-10-12T03:55:33.785Z,76933.28
2022-10-12T03:58:00.677Z,76939.06
2022-10-12T04:00:28.289Z,76952.56
2022-10-12T04:02:55.697Z,76960.25
2022-10-12T04:05:22.846Z,76964.13
2022-10-12T04:07:49.668Z,76967.97
2022-10-12T04:10:16.480Z,76975.69
2022-10-12T04:12:43.097Z,76987.25
2022-10-12T04:15:10.228Z,76998.81
2022-10-12T04:17:37.696Z,77006.53
2022-10-12T04:20:06.035Z,77014.22
2022-10-12T04:22:34.113Z,77018.09
2022-10-12T04:25:00.781Z,77016.16
2022-10-12T04:27:27.446Z,77018.09
2022-10-12T04:29:54.182Z,77029.66
2022-10-12T04:32:20.950Z,77037.34
2022-10-12T04:34:47.590Z,77050.84
2022-10-12T04:37:14.452Z,77045.06
2022-10-12T04:39:41.166Z,77062.41
2022-10-12T04:42:07.916Z,77068.19
2022-10-12T04:44:34.914Z,77072.03
2022-10-12T04:47:02.472Z,77072.03
2022-10-12T04:49:29.207Z,77072.03
2022-10-12T04:51:55.928Z,77062.41
2022-10-12T04:54:22.540Z,77072.03
2022-10-12T04:56:49.186Z,77062.41
2022-10-12T04:59:15.932Z,77062.41
2022-10-12T05:01:43.106Z,77056.63
2022-10-12T05:04:09.896Z,77041.22
2022-10-12T05:06:36.483Z,77041.22
2022-10-12T05:09:03.304Z,77045.06
2022-10-12T05:11:29.969Z,77050.84
2022-10-12T05:13:56.572Z,77047.00
2022-10-12T05:16:23.195Z,77050.84
2022-10-12T05:18:49.820Z,77048.91
2022-10-12T05:21:16.832Z,77043.13
2022-10-12T05:23:43.488Z,77023.88
2022-10-12T05:26:10.267Z,77006.53
2022-10-12T05:28:40.786Z,76983.38
2022-10-12T05:31:07.960Z,76946.78
2022-10-12T05:33:34.594Z,76927.50
2022-10-12T05:36:01.434Z,76887.03
2022-10-12T05:38:28.317Z,76842.69
2022-10-12T05:41:00.102Z,76844.63
2022-10-12T05:43:27.492Z,76757.91
2022-10-12T05:45:54.603Z,76703.94
2022-10-12T05:48:21.252Z,76673.13
2022-10-12T05:50:47.863Z,76648.06
2022-10-12T05:53:14.475Z,76648.06
2022-10-12T05:55:52.034Z,76692.38
2022-10-12T05:58:18.947Z,76767.53
2022-10-12T06:00:45.550Z,76782.97
2022-10-12T06:03:12.226Z,76806.09
2022-10-12T06:05:38.868Z,76809.94
2022-10-12T06:08:05.755Z,76819.56
2022-10-12T06:10:32.871Z,76836.94
2022-10-12T06:12:59.502Z,76856.19
2022-10-12T06:15:26.185Z,76863.91
2022-10-12T06:17:52.865Z,76856.19
2022-10-12T06:20:19.607Z,76838.84
2022-10-12T06:22:46.291Z,76879.31
2022-10-12T06:25:13.423Z,76867.75
2022-10-12T06:27:40.181Z,76856.19
2022-10-12T06:30:07.145Z,76879.31
2022-10-12T06:32:34.721Z,76877.41
2022-10-12T06:35:01.735Z,76879.31
2022-10-12T06:37:49.004Z,76869.69
2022-10-12T06:40:20.128Z,76873.53
2022-10-12T06:42:48.312Z,76879.31
2022-10-12T06:45:15.882Z,76883.19
2022-10-12T06:47:42.666Z,76879.31
2022-10-12T06:50:10.060Z,76888.97
2022-10-12T06:52:37.324Z,76871.63
2022-10-12T06:55:05.326Z,76883.19
2022-10-12T06:57:32.270Z,76860.06
2022-10-12T06:59:58.916Z,76833.06
2022-10-12T07:02:25.553Z,76817.66
2022-10-12T07:04:52.831Z,76782.97
2022-10-12T07:07:20.352Z,76732.84
2022-10-12T07:09:47.103Z,76646.13
2022-10-12T07:12:13.820Z,76570.97
2022-10-12T07:14:40.755Z,76544.00
2022-10-12T07:17:07.505Z,76592.19
2022-10-12T07:19:34.210Z,76628.78
2022-10-12T07:22:01.386Z,76650.00
2022-10-12T07:24:35.880Z,76621.09
2022-10-12T07:27:04.670Z,76605.66
2022-10-12T07:29:32.375Z,76621.09
2022-10-12T07:31:59.436Z,76570.97
2022-10-12T07:34:30.065Z,76528.59
2022-10-12T07:36:59.928Z,76493.91
2022-10-12T07:39:27.338Z,76482.34
2022-10-12T07:41:54.868Z,76509.31
2022-10-12T07:44:22.704Z,76497.75
2022-10-12T07:46:49.535Z,76515.09
2022-10-12T07:49:16.310Z,76528.59
2022-10-12T07:51:43.590Z,76551.72
2022-10-12T07:54:10.837Z,76497.75
2022-10-12T07:56:40.464Z,76486.19
2022-10-12T07:59:07.157Z,76447.66
2022-10-12T08:01:34.788Z,76412.97
2022-10-12T08:04:02.213Z,76382.13
2022-10-12T08:06:31.437Z,76330.13
2022-10-12T08:08:59.574Z,76316.63
2022-10-12T08:11:26.731Z,76314.69
2022-10-12T08:13:53.764Z,76258.81
2022-10-12T08:16:21.384Z,76191.38
2022-10-12T08:18:48.111Z,76170.19
2022-10-12T08:21:15.884Z,76104.69
2022-10-12T08:23:44.643Z,76131.66
2022-10-12T08:26:12.588Z,76143.22
2022-10-12T08:28:39.729Z,76216.44
2022-10-12T08:31:15.030Z,76251.13
2022-10-12T08:33:41.980Z,76241.47
2022-10-12T08:36:09.261Z,76247.25
2022-10-12T08:38:40.329Z,76289.66
2022-10-12T08:41:22.236Z,76308.91
2022-10-12T08:44:10.026Z,76299.28
2022-10-12T08:46:36.804Z,76285.78
2022-10-12T08:49:03.400Z,76305.06
2022-10-12T08:51:33.323Z,76310.84
2022-10-12T08:54:06.791Z,76293.50
2022-10-12T08:56:39.565Z,76293.50
2022-10-12T08:59:09.402Z,76310.84
2022-10-12T09:01:59.113Z,76310.84
2022-10-12T09:05:08.580Z,76308.91
2022-10-12T09:07:42.273Z,76287.72
2022-10-12T09:10:18.104Z,76301.22
2022-10-12T09:12:50.892Z,76308.91
2022-10-12T09:15:30.455Z,76293.50
2022-10-12T09:17:59.962Z,76293.50
2022-10-12T09:20:33.309Z,76305.06
2022-10-12T09:23:26.601Z,76272.31
2022-10-12T09:25:56.884Z,76299.28
2022-10-12T09:28:34.844Z,76243.41
2022-10-12T09:31:08.010Z,76281.94
2022-10-12T09:33:50.546Z,76266.53
2022-10-12T09:36:21.559Z,76256.91
2022-10-12T09:38:49.618Z,76150.91
2022-10-12T09:41:21.625Z,76127.78
2022-10-12T09:43:56.845Z,76120.09
2022-10-12T09:46:37.303Z,76102.75
2022-10-12T09:49:04.284Z,76021.81
2022-10-12T09:51:32.544Z,76068.06
2022-10-12T09:54:03.609Z,76050.72
2022-10-12T09:56:40.746Z,76016.03
2022-10-12T09:59:35.181Z,76058.44
2022-10-12T10:02:14.611Z,76066.13
2022-10-12T10:04:44.036Z,76048.81
2022-10-12T10:07:33.848Z,76012.19
2022-10-12T10:10:12.373Z,75989.06
2022-10-12T10:12:48.516Z,76016.03
2022-10-12T10:15:28.013Z,75965.94
2022-10-12T10:17:57.729Z,75983.28
2022-10-12T10:20:31.944Z,75985.22
2022-10-12T10:23:00.018Z,75931.28
2022-10-12T10:25:26.736Z,75962.09
2022-10-12T10:28:21.476Z,75858.06
2022-10-12T10:31:04.522Z,75861.91
2022-10-12T10:33:34.333Z,75858.06
2022-10-12T10:36:26.345Z,75867.69
2022-10-12T10:38:58.182Z,75834.94
2022-10-12T10:41:30.965Z,75885.03
2022-10-12T10:43:57.918Z,75925.50
2022-10-12T10:46:30.636Z,75942.84
2022-10-12T10:49:06.350Z,75925.50
2022-10-12T10:51:51.163Z,75979.44
2022-10-12T10:54:25.570Z,75971.72
2022-10-12T10:56:56.313Z,75944.75
2022-10-12T10:59:35.898Z,76019.91
2022-10-12T11:02:25.024Z,75983.28
2022-10-12T11:05:04.845Z,75952.47
2022-10-12T11:07:45.090Z,76008.34
2022-10-12T11:10:37.508Z,75985.22
2022-10-12T11:13:18.834Z,75981.38
2022-10-12T11:15:59.784Z,75991.00
2022-10-12T11:18:39.641Z,76016.03
2022-10-12T11:21:21.821Z,75975.59
2022-10-12T11:23:53.836Z,75987.16
2022-10-12T11:26:23.385Z,75981.38
2022-10-12T11:28:51.075Z,75977.50
2022-10-12T11:31:23.134Z,75977.50
2022-10-12T11:33:52.401Z,75950.53
2022-10-12T11:36:23.862Z,75954.38
2022-10-12T11:39:07.309Z,75956.31
2022-10-12T11:42:09.862Z,75942.84
2022-10-12T11:44:45.202Z,75969.81
2022-10-12T11:47:17.583Z,75973.66
2022-10-12T11:49:48.254Z,76002.56
2022-10-12T11:52:18.037Z,75981.38
2022-10-12T11:55:04.803Z,75992.94
2022-10-12T11:57:36.899Z,75985.22
2022-10-12T12:00:36.150Z,75962.09
2022-10-12T12:03:30.975Z,75925.50
2022-10-12T12:06:29.927Z,75896.59
2022-10-12T12:09:02.582Z,75892.75
2022-10-12T12:11:31.889Z,75964.03
2022-10-12T12:14:26.569Z,75912.00
2022-10-12T12:17:18.162Z,75908.16
2022-10-12T12:19:52.474Z,75875.41
2022-10-12T12:22:28.838Z,75902.38
2022-10-12T12:25:14.415Z,75838.78
2022-10-12T12:27:48.575Z,75838.78
2022-10-12T12:30:15.306Z,75831.09
2022-10-12T12:32:45.048Z,75842.66
2022-10-12T12:35:30.100Z,75827.22
2022-10-12T12:38:31.475Z,75937.06
2022-10-12T12:41:09.454Z,75946.69
2022-10-12T12:43:38.011Z,75950.53
2022-10-12T12:46:10.486Z,75933.19
2022-10-12T12:48:40.126Z,75912.00
2022-10-12T12:51:09.539Z,75904.28
2022-10-12T12:53:38.635Z,75912.00
2022-10-12T12:56:16.159Z,75954.38
2022-10-12T12:58:45.593Z,75919.72
2022-10-12T13:01:41.444Z,75908.16
2022-10-12T13:04:40.713Z,75950.53
2022-10-12T13:07:36.120Z,75989.06
2022-10-12T13:10:38.079Z,75981.38
2022-10-12T13:13:40.433Z,76004.47
2022-10-12T13:17:23.480Z,75967.88
2022-10-12T13:19:22.148Z,75973.66
2022-10-12T13:21:52.685Z,75973.66
2022-10-12T13:24:30.189Z,76016.03
2022-10-12T13:27:21.586Z,75981.38
2022-10-12T13:29:57.803Z,75983.28
2022-10-12T13:32:55.715Z,75965.94
2022-10-12T13:35:38.271Z,75975.59
2022-10-12T13:38:19.509Z,75973.66
2022-10-12T13:40:51.467Z,75964.03
2022-10-12T13:43:45.823Z,75965.94
2022-10-12T13:46:48.499Z,75958.25
2022-10-12T13:49:17.385Z,75933.19
2022-10-12T13:51:47.003Z,75931.28
2022-10-12T13:54:20.598Z,75923.56
2022-10-12T13:56:49.210Z,75915.84
2022-10-12T13:59:20.194Z,75929.34
2022-10-12T14:01:51.031Z,75923.56
2022-10-12T14:04:17.661Z,75931.28
2022-10-12T14:06:52.289Z,75927.41
2022-10-12T14:09:23.331Z,75940.91
2022-10-12T14:11:51.531Z,75989.06
2022-10-12T14:14:29.969Z,75989.06
2022-10-12T14:16:56.740Z,76012.19
2022-10-12T14:19:42.701Z,76012.19
2022-10-12T14:22:09.719Z,76019.91
2022-10-12T14:24:37.100Z,76014.13
2022-10-12T14:27:06.621Z,76008.34
2022-10-12T14:29:39.437Z,76008.34
2022-10-12T14:32:08.593Z,76027.59
2022-10-12T14:34:47.621Z,76016.03
2022-10-12T14:37:17.215Z,76017.97
2022-10-12T14:39:45.636Z,76029.53
2022-10-12T14:42:33.564Z,76017.97
2022-10-12T14:45:01.540Z,76008.34
2022-10-12T14:47:34.887Z,76027.59
2022-10-12T14:50:07.664Z,76031.47
2022-10-12T14:52:37.355Z,76023.75
2022-10-12T14:55:04.896Z,76019.91
2022-10-12T14:57:31.937Z,76010.25
2022-10-12T14:59:59.053Z,76002.56
2022-10-12T15:02:28.500Z,75992.94
2022-10-12T15:04:56.435Z,75994.84
2022-10-12T15:07:41.169Z,75998.72
2022-10-12T15:10:09.075Z,76012.19
2022-10-12T15:12:36.306Z,76027.59
2022-10-12T15:15:14.099Z,76039.16
2022-10-12T15:17:40.767Z,76035.31
2022-10-12T15:20:09.080Z,76039.16
2022-10-12T15:22:35.839Z,76046.88
2022-10-12T15:25:08.603Z,76058.44
2022-10-12T15:27:35.219Z,76073.84
2022-10-12T15:30:01.941Z,76073.84
2022-10-12T15:32:28.576Z,76081.56
2022-10-12T15:34:55.314Z,76091.19
2022-10-12T15:37:22.860Z,76096.97
2022-10-12T15:39:49.621Z,76104.69
2022-10-12T15:42:16.325Z,76106.59
2022-10-12T15:44:42.956Z,76122.00
2022-10-12T15:47:11.150Z,76129.72
2022-10-12T15:49:38.576Z,76133.56
2022-10-12T15:52:06.532Z,76139.34
2022-10-12T15:54:33.140Z,76145.13
2022-10-12T15:56:59.812Z,76156.69
2022-10-12T15:59:27.075Z,76170.19
2022-10-12T16:01:53.762Z,76177.91
2022-10-12T16:04:20.397Z,76179.81
2022-10-12T16:06:47.004Z,76193.31
2022-10-12T16:09:13.651Z,76204.88
2022-10-12T16:11:40.320Z,76216.44
2022-10-12T16:14:07.048Z,76222.22
2022-10-12T16:16:33.696Z,76233.78
2022-10-12T16:19:00.327Z,76231.84
2022-10-12T16:21:26.974Z,76239.56
2022-10-12T16:23:53.680Z,76247.25
2022-10-12T16:26:20.417Z,76253.03
2022-10-12T16:28:47.111Z,76262.66
2022-10-12T16:31:18.064Z,76270.38
2022-10-12T16:33:45.474Z,76278.09
2022-10-12T16:36:15.142Z,76285.78
2022-10-12T16:38:42.995Z,76299.28
2022-10-12T16:41:15.180Z,76303.13
2022-10-12T16:43:41.955Z,76310.84
2022-10-12T16:46:08.957Z,76316.63
2022-10-12T16:48:36.539Z,76320.47
2022-10-12T16:51:08.130Z,76316.63
2022-10-12T16:53:35.075Z,76326.25
2022-10-12T16:56:02.431Z,76328.19
2022-10-12T16:58:29.050Z,76332.03
2022-10-12T17:00:55.751Z,76332.03
2022-10-12T17:03:24.894Z,76332.03
2022-10-12T17:06:01.017Z,76335.91
2022-10-12T17:08:27.819Z,76337.81
2022-10-12T17:10:55.481Z,76353.25
2022-10-12T17:13:24.412Z,76362.88
2022-10-12T17:15:51.074Z,76370.56
2022-10-12T17:18:17.763Z,76372.50
2022-10-12T17:20:45.018Z,76374.44
2022-10-12T17:23:12.904Z,76370.56
2022-10-12T17:25:39.662Z,76384.06
2022-10-12T17:28:06.246Z,76389.84
2022-10-12T17:30:38.375Z,76401.41
2022-10-12T17:33:05.249Z,76405.25
2022-10-12T17:35:31.916Z,76409.13
2022-10-12T17:37:58.721Z,76420.69
2022-10-12T17:40:25.409Z,76416.81
2022-10-12T17:42:52.010Z,76420.69
2022-10-12T17:45:18.632Z,76430.31
2022-10-12T17:47:49.031Z,76432.25
2022-10-12T17:50:16.005Z,76439.94
2022-10-12T17:52:42.688Z,76439.94
2022-10-12T17:55:19.185Z,76438.03
2022-10-12T17:57:55.982Z,76449.59
2022-10-12T18:00:22.647Z,76445.72
2022-10-12T18:02:49.455Z,76447.66
2022-10-12T18:05:16.311Z,76455.38
2022-10-12T18:07:43.017Z,76468.84
2022-10-12T18:10:10.826Z,76478.50
2022-10-12T18:12:37.520Z,76484.28
2022-10-12T18:15:07.422Z,76501.63
2022-10-12T18:17:34.852Z,76507.38
2022-10-12T18:20:01.889Z,76509.31
2022-10-12T18:22:29.379Z,76513.16
2022-10-12T18:24:56.075Z,76515.09
2022-10-12T18:27:22.901Z,76524.72
2022-10-12T18:29:49.760Z,76528.59
2022-10-12T18:32:16.835Z,76532.44
2022-10-12T18:34:43.891Z,76532.44
2022-10-12T18:37:10.615Z,76524.72
2022-10-12T18:39:40.140Z,76524.72
2022-10-12T18:42:06.920Z,76532.44
2022-10-12T18:44:33.597Z,76542.06
2022-10-12T18:47:00.222Z,76547.84
2022-10-12T18:49:26.945Z,76555.56
2022-10-12T18:51:53.918Z,76559.41
2022-10-12T18:54:20.826Z,76559.41
2022-10-12T18:56:47.710Z,76555.56
2022-10-12T18:59:17.963Z,76559.41
2022-10-12T19:01:47.620Z,76561.34
2022-10-12T19:04:14.448Z,76555.56
2022-10-12T19:06:45.136Z,76557.50
2022-10-12T19:09:13.789Z,76553.63
2022-10-12T19:11:40.907Z,76555.56
2022-10-12T19:14:13.965Z,76553.63
2022-10-12T19:16:43.805Z,76555.56
2022-10-12T19:19:20.430Z,76557.50
2022-10-12T19:21:48.546Z,76551.72
2022-10-12T19:24:15.877Z,76551.72
2022-10-12T19:26:43.793Z,76559.41
2022-10-12T19:29:13.243Z,76563.28
2022-10-12T19:31:43.493Z,76557.50
2022-10-12T19:34:12.461Z,76559.41
2022-10-12T19:36:40.337Z,76559.41
2022-10-12T19:39:10.271Z,76559.41
2022-10-12T19:41:37.318Z,76559.41
2022-10-12T19:44:05.374Z,76555.56
2022-10-12T19:46:32.715Z,76561.34
2022-10-12T19:49:00.691Z,76570.97
2022-10-12T19:51:29.494Z,76567.13
2022-10-12T19:53:57.984Z,76567.13
2022-10-12T19:56:24.896Z,76567.13
2022-10-12T19:58:55.112Z,76578.69
2022-10-12T20:01:31.271Z,76582.53
2022-10-12T20:03:58.118Z,76597.97
2022-10-12T20:06:28.096Z,76607.59
2022-10-12T20:08:57.630Z,76621.09
2022-10-12T20:11:25.073Z,76632.66
2022-10-12T20:13:52.330Z,76640.34
2022-10-12T20:16:20.555Z,76651.91
2022-10-12T20:18:47.535Z,76659.63
2022-10-12T20:21:18.648Z,76675.03
2022-10-12T20:23:46.064Z,76692.38
2022-10-12T20:26:16.183Z,76703.94
2022-10-12T20:28:43.173Z,76709.72
2022-10-12T20:31:10.267Z,76709.72
2022-10-12T20:33:39.092Z,76711.66
2022-10-12T20:36:11.067Z,76713.59
2022-10-12T20:38:38.382Z,76723.22
2022-10-12T20:41:10.749Z,76727.06
2022-10-12T20:43:40.536Z,76730.94
2022-10-12T20:46:11.209Z,76736.72
2022-10-12T20:48:40.055Z,76752.13
2022-10-12T20:51:08.422Z,76755.97
2022-10-12T20:53:35.758Z,76759.84
2022-10-12T20:56:06.463Z,76765.63
2022-10-12T20:58:33.203Z,76771.41
2022-10-12T21:01:08.211Z,76769.47
2022-10-12T21:03:34.944Z,76767.53
2022-10-12T21:06:03.598Z,76767.53
2022-10-12T21:08:30.384Z,76763.69
2022-10-12T21:10:57.362Z,76748.28
2022-10-12T21:13:24.011Z,76740.56
2022-10-12T21:15:54.343Z,76736.72
2022-10-12T21:18:21.792Z,76717.44
2022-10-12T21:20:56.428Z,76727.06
2022-10-12T21:23:23.243Z,76736.72
2022-10-12T21:25:50.431Z,76748.28
2022-10-12T21:28:17.596Z,76742.50
2022-10-12T21:30:44.666Z,76744.41
2022-10-12T21:33:11.497Z,76742.50
2022-10-12T21:35:38.115Z,76744.41
2022-10-12T21:38:04.882Z,76734.78
2022-10-12T21:40:32.591Z,76736.72
2022-10-12T21:42:59.370Z,76736.72
2022-10-12T21:45:26.203Z,76740.56
2022-10-12T21:47:52.883Z,76732.84
2022-10-12T21:50:19.584Z,76732.84
2022-10-12T21:52:49.802Z,76734.78
2022-10-12T21:55:16.937Z,76732.84
2022-10-12T21:57:43.616Z,76732.84
2022-10-12T22:00:11.073Z,76730.94
2022-10-12T22:02:40.508Z,76732.84
2022-10-12T22:05:07.352Z,76725.16
2022-10-12T22:07:34.161Z,76721.28
2022-10-12T22:10:01.578Z,76713.59
2022-10-12T22:12:30.103Z,76713.59
2022-10-12T22:14:56.830Z,76717.44
2022-10-12T22:17:26.709Z,76719.38
2022-10-12T22:19:53.430Z,76721.28
2022-10-12T22:22:20.404Z,76719.38
2022-10-12T22:24:47.263Z,76717.44
2022-10-12T22:27:13.954Z,76729.00
2022-10-12T22:29:40.661Z,76725.16
2022-10-12T22:32:07.489Z,76729.00
2022-10-12T22:34:34.132Z,76732.84
2022-10-12T22:37:00.781Z,76736.72
2022-10-12T22:39:27.434Z,76740.56
2022-10-12T22:41:54.124Z,76736.72
2022-10-12T22:44:20.980Z,76736.72
2022-10-12T22:46:53.860Z,76744.41
2022-10-12T22:49:20.669Z,76740.56
2022-10-12T22:51:47.339Z,76734.78
2022-10-12T22:54:14.070Z,76740.56
2022-10-12T22:56:41.380Z,76740.56
2022-10-12T22:59:12.935Z,76736.72
2022-10-12T23:01:39.763Z,76748.28
2022-10-12T23:04:06.578Z,76744.41
2022-10-12T23:06:33.257Z,76755.97
2022-10-12T23:09:00.172Z,76750.19
2022-10-12T23:11:29.082Z,76748.28
2022-10-12T23:13:57.299Z,76748.28
2022-10-12T23:16:27.470Z,76746.34
2022-10-12T23:18:59.338Z,76750.19
2022-10-12T23:21:27.943Z,76754.06
2022-10-12T23:23:55.168Z,76748.28
2022-10-12T23:26:24.686Z,76752.13
2022-10-12T23:28:52.575Z,76752.13
2022-10-12T23:31:22.529Z,76757.91
2022-10-12T23:34:00.229Z,76755.97
2022-10-12T23:36:27.528Z,76752.13
2022-10-12T23:38:54.701Z,76752.13
2022-10-12T23:41:21.589Z,76748.28
2022-10-12T23:43:48.268Z,76752.13
2022-10-12T23:46:15.095Z,76748.28
2022-10-12T23:48:41.802Z,76744.41
2022-10-12T23:51:09.958Z,76740.56
2022-10-12T23:53:36.904Z,76734.78
2022-10-12T23:56:04.041Z,76732.84
2022-10-12T23:58:30.827Z,76738.63
